SHT21B EGJB-EGLL
Flight info
| Callsign | SHT21B |
|---|---|
| Flight time | 0h 30m |
| Altitude | 19000 |
| Route | ORIST L982 ROXOG |
| Aircraft | A319/M-SDE3FGHIRWY/LB1 |
Departure
| Time | 2026-04-26 15:12 |
|---|---|
| Airport | Guernsey Airport (EGJB) |
Arrival
| Time | 2026-04-26 15:42 |
|---|---|
| Airport | London Heathrow Airport (EGLL) |
| Time | Latitude | Longitude | Altitude | Speed | Heading |
|---|---|---|---|---|---|
| 2026-04-26 14:55 | 49.43259 | -2.59687 | 345 ft | 0 kts | 178° |
| 2026-04-26 15:04 | 49.43260 | -2.59687 | 344 ft | 0 kts | 178° |
| 2026-04-26 15:07 | 49.43310 | -2.59690 | 344 ft | 4 kts | 180° |
| 2026-04-26 15:07 | 49.43337 | -2.59687 | 344 ft | 4 kts | 191° |
| 2026-04-26 15:07 | 49.43359 | -2.59674 | 355 ft | 4 kts | 243° |
| 2026-04-26 15:08 | 49.43362 | -2.59665 | 355 ft | 0 kts | 268° |
| 2026-04-26 15:09 | 49.43361 | -2.59687 | 350 ft | 5 kts | 266° |
| 2026-04-26 15:09 | 49.43348 | -2.59779 | 349 ft | 12 kts | 258° |
| 2026-04-26 15:10 | 49.43343 | -2.59947 | 344 ft | 18 kts | 268° |
| 2026-04-26 15:10 | 49.43339 | -2.60078 | 353 ft | 20 kts | 268° |
| 2026-04-26 15:10 | 49.43330 | -2.60401 | 335 ft | 26 kts | 268° |
| 2026-04-26 15:10 | 49.43338 | -2.60698 | 327 ft | 29 kts | 284° |
| 2026-04-26 15:11 | 49.43363 | -2.60970 | 322 ft | 20 kts | 270° |
| 2026-04-26 15:11 | 49.43357 | -2.61198 | 316 ft | 15 kts | 268° |
| 2026-04-26 15:11 | 49.43423 | -2.61347 | 313 ft | 19 kts | 335° |
| 2026-04-26 15:11 | 49.43468 | -2.61298 | 314 ft | 1 kts | 84° |
| 2026-04-26 15:12 | 49.43478 | -2.61000 | 320 ft | 69 kts | 87° |
| 2026-04-26 15:12 | 49.43506 | -2.59871 | 377 ft | 134 kts | 87° |
| 2026-04-26 15:12 | 49.43567 | -2.58373 | 912 ft | 143 kts | 86° |
| 2026-04-26 15:12 | 49.43608 | -2.56856 | 1654 ft | 141 kts | 88° |
| 2026-04-26 15:13 | 49.43645 | -2.55273 | 2004 ft | 159 kts | 89° |
| 2026-04-26 15:13 | 49.43689 | -2.53451 | 2316 ft | 182 kts | 89° |
| 2026-04-26 15:13 | 49.43757 | -2.51379 | 2616 ft | 207 kts | 84° |
| 2026-04-26 15:13 | 49.44404 | -2.49344 | 3191 ft | 222 kts | 43° |
| 2026-04-26 15:14 | 49.45776 | -2.48273 | 3997 ft | 225 kts | 13° |
| 2026-04-26 15:14 | 49.47296 | -2.47710 | 4937 ft | 225 kts | 12° |
| 2026-04-26 15:14 | 49.48821 | -2.47147 | 5625 ft | 237 kts | 12° |
| 2026-04-26 15:14 | 49.50508 | -2.46520 | 6080 ft | 262 kts | 12° |
| 2026-04-26 15:15 | 49.52329 | -2.45835 | 6799 ft | 273 kts | 13° |
| 2026-04-26 15:15 | 49.54200 | -2.45123 | 7641 ft | 279 kts | 13° |
| 2026-04-26 15:15 | 49.56100 | -2.44397 | 8495 ft | 284 kts | 13° |
| 2026-04-26 15:15 | 49.58044 | -2.43654 | 9346 ft | 289 kts | 13° |
| 2026-04-26 15:16 | 49.60011 | -2.42900 | 10196 ft | 294 kts | 13° |
| 2026-04-26 15:16 | 49.62014 | -2.42129 | 10956 ft | 299 kts | 13° |
| 2026-04-26 15:16 | 49.64022 | -2.41355 | 11713 ft | 303 kts | 13° |
| 2026-04-26 15:16 | 49.66087 | -2.40560 | 12493 ft | 307 kts | 13° |
| 2026-04-26 15:17 | 49.68164 | -2.39709 | 13253 ft | 312 kts | 18° |
| 2026-04-26 15:17 | 49.69492 | -2.38830 | 13740 ft | 316 kts | 27° |
| 2026-04-26 15:17 | 49.71901 | -2.36034 | 14232 ft | 339 kts | 47° |
| 2026-04-26 15:17 | 49.73482 | -2.33166 | 14365 ft | 362 kts | 50° |
| 2026-04-26 15:18 | 49.75135 | -2.30121 | 14714 ft | 374 kts | 50° |
| 2026-04-26 15:18 | 49.76826 | -2.27017 | 15263 ft | 380 kts | 49° |
| 2026-04-26 15:18 | 49.78549 | -2.23870 | 15844 ft | 385 kts | 49° |
| 2026-04-26 15:18 | 49.80289 | -2.20696 | 16444 ft | 389 kts | 49° |
| 2026-04-26 15:19 | 49.82049 | -2.17482 | 17005 ft | 394 kts | 49° |
| 2026-04-26 15:19 | 49.83837 | -2.14223 | 17577 ft | 399 kts | 49° |
| 2026-04-26 15:19 | 49.85649 | -2.10917 | 18147 ft | 404 kts | 48° |
| 2026-04-26 15:19 | 49.87480 | -2.07578 | 18693 ft | 409 kts | 48° |
| 2026-04-26 15:20 | 49.89330 | -2.04202 | 19097 ft | 413 kts | 48° |
| 2026-04-26 15:20 | 49.91165 | -2.00835 | 19222 ft | 414 kts | 49° |
| 2026-04-26 15:20 | 49.93044 | -1.97373 | 19259 ft | 422 kts | 49° |
| 2026-04-26 15:20 | 49.94938 | -1.93874 | 19258 ft | 424 kts | 49° |
| 2026-04-26 15:21 | 49.96835 | -1.90361 | 19260 ft | 424 kts | 49° |
| 2026-04-26 15:21 | 49.98788 | -1.86922 | 19257 ft | 423 kts | 43° |
| 2026-04-26 15:21 | 50.01030 | -1.83995 | 19258 ft | 421 kts | 33° |
| 2026-04-26 15:21 | 50.03536 | -1.81695 | 19259 ft | 418 kts | 24° |
| 2026-04-26 15:22 | 50.06135 | -1.79651 | 19265 ft | 418 kts | 24° |
| 2026-04-26 15:22 | 50.08727 | -1.77603 | 19265 ft | 418 kts | 24° |
| 2026-04-26 15:22 | 50.10442 | -1.76244 | 19263 ft | 418 kts | 24° |
| 2026-04-26 15:22 | 50.12938 | -1.73897 | 19263 ft | 421 kts | 34° |
| 2026-04-26 15:23 | 50.15218 | -1.71011 | 19267 ft | 422 kts | 38° |
| 2026-04-26 15:23 | 50.17468 | -1.68083 | 19268 ft | 422 kts | 38° |
| 2026-04-26 15:23 | 50.19726 | -1.65153 | 19273 ft | 422 kts | 38° |
| 2026-04-26 15:23 | 50.21986 | -1.62230 | 19272 ft | 422 kts | 38° |
| 2026-04-26 15:24 | 50.24246 | -1.59317 | 19278 ft | 421 kts | 36° |
| 2026-04-26 15:24 | 50.26675 | -1.56785 | 19276 ft | 418 kts | 26° |
| 2026-04-26 15:24 | 50.29319 | -1.54931 | 19275 ft | 415 kts | 16° |
| 2026-04-26 15:24 | 50.32065 | -1.53590 | 19277 ft | 414 kts | 14° |
| 2026-04-26 15:25 | 50.34820 | -1.52258 | 19277 ft | 414 kts | 14° |
| 2026-04-26 15:25 | 50.37577 | -1.50907 | 19278 ft | 414 kts | 14° |
| 2026-04-26 15:25 | 50.40291 | -1.49567 | 19278 ft | 414 kts | 14° |
| 2026-04-26 15:25 | 50.43033 | -1.48205 | 19292 ft | 414 kts | 14° |
| 2026-04-26 15:26 | 50.45783 | -1.46841 | 19292 ft | 414 kts | 14° |
| 2026-04-26 15:26 | 50.48528 | -1.45482 | 19295 ft | 414 kts | 14° |
| 2026-04-26 15:26 | 50.51280 | -1.44121 | 19299 ft | 414 kts | 14° |
| 2026-04-26 15:26 | 50.53990 | -1.42607 | 19298 ft | 416 kts | 21° |
| 2026-04-26 15:27 | 50.56567 | -1.40506 | 19301 ft | 417 kts | 26° |
| 2026-04-26 15:27 | 50.59120 | -1.38310 | 19302 ft | 417 kts | 26° |
| 2026-04-26 15:27 | 50.61661 | -1.36123 | 19307 ft | 416 kts | 26° |
| 2026-04-26 15:27 | 50.64206 | -1.33937 | 19318 ft | 416 kts | 26° |
| 2026-04-26 15:28 | 50.66749 | -1.31751 | 19319 ft | 415 kts | 26° |
| 2026-04-26 15:28 | 50.69254 | -1.29599 | 19318 ft | 415 kts | 26° |
| 2026-04-26 15:28 | 50.71784 | -1.27425 | 19319 ft | 414 kts | 26° |
| 2026-04-26 15:28 | 50.74316 | -1.25238 | 19315 ft | 414 kts | 26° |
| 2026-04-26 15:29 | 50.76820 | -1.23054 | 18939 ft | 411 kts | 27° |
| 2026-04-26 15:29 | 50.79292 | -1.20707 | 18223 ft | 414 kts | 30° |
| 2026-04-26 15:29 | 50.84030 | -1.15745 | 17161 ft | 404 kts | 32° |
| 2026-04-26 15:30 | 50.88630 | -1.10823 | 16099 ft | 393 kts | 32° |
| 2026-04-26 15:30 | 50.90889 | -1.08444 | 15574 ft | 388 kts | 32° |
| 2026-04-26 15:30 | 50.93137 | -1.06103 | 15045 ft | 383 kts | 32° |
| 2026-04-26 15:31 | 50.95354 | -1.03809 | 14524 ft | 379 kts | 32° |
| 2026-04-26 15:31 | 50.99703 | -0.99270 | 13447 ft | 369 kts | 36° |
| 2026-04-26 15:31 | 51.01600 | -0.96571 | 12957 ft | 363 kts | 47° |
| 2026-04-26 15:32 | 51.04359 | -0.91648 | 12125 ft | 355 kts | 48° |
| 2026-04-26 15:32 | 51.06571 | -0.87816 | 11586 ft | 344 kts | 41° |
| 2026-04-26 15:32 | 51.08488 | -0.85806 | 11450 ft | 320 kts | 23° |
| 2026-04-26 15:33 | 51.10563 | -0.84816 | 11086 ft | 306 kts | 6° |
| 2026-04-26 15:33 | 51.12657 | -0.84411 | 10557 ft | 302 kts | 5° |
| 2026-04-26 15:33 | 51.14737 | -0.84034 | 10011 ft | 298 kts | 5° |
| 2026-04-26 15:33 | 51.16788 | -0.83666 | 9412 ft | 296 kts | 5° |
| 2026-04-26 15:34 | 51.18814 | -0.83304 | 8937 ft | 289 kts | 5° |
| 2026-04-26 15:34 | 51.20784 | -0.82949 | 8547 ft | 281 kts | 6° |
| 2026-04-26 15:34 | 51.22704 | -0.82609 | 8177 ft | 274 kts | 4° |
| 2026-04-26 15:34 | 51.24580 | -0.82451 | 7806 ft | 267 kts | 1° |
| 2026-04-26 15:35 | 51.26393 | -0.82361 | 7440 ft | 261 kts | 1° |
| 2026-04-26 15:35 | 51.28198 | -0.82288 | 7080 ft | 260 kts | 1° |
| 2026-04-26 15:35 | 51.30013 | -0.82223 | 6720 ft | 263 kts | 1° |
| 2026-04-26 15:35 | 51.31855 | -0.82169 | 6334 ft | 266 kts | 1° |
| 2026-04-26 15:36 | 51.33715 | -0.82126 | 5963 ft | 268 kts | 1° |
| 2026-04-26 15:36 | 51.35582 | -0.82090 | 5581 ft | 269 kts | 1° |
| 2026-04-26 15:36 | 51.37434 | -0.82069 | 5192 ft | 263 kts | 1° |
| 2026-04-26 15:36 | 51.39241 | -0.82061 | 4807 ft | 257 kts | 1° |
| 2026-04-26 15:37 | 51.41010 | -0.82054 | 4421 ft | 252 kts | 1° |
| 2026-04-26 15:37 | 51.42749 | -0.82051 | 4038 ft | 247 kts | 1° |
| 2026-04-26 15:37 | 51.44402 | -0.81598 | 3644 ft | 237 kts | 27° |
| 2026-04-26 15:37 | 51.45619 | -0.79948 | 3277 ft | 227 kts | 55° |
| 2026-04-26 15:38 | 51.46480 | -0.77816 | 3004 ft | 224 kts | 60° |
| 2026-04-26 15:38 | 51.47252 | -0.75728 | 3002 ft | 213 kts | 64° |
| 2026-04-26 15:38 | 51.47621 | -0.73472 | 3000 ft | 210 kts | 89° |
| 2026-04-26 15:38 | 51.47635 | -0.71144 | 2847 ft | 203 kts | 91° |
| 2026-04-26 15:39 | 51.47647 | -0.68935 | 2613 ft | 194 kts | 91° |
| 2026-04-26 15:39 | 51.47659 | -0.66855 | 2378 ft | 181 kts | 91° |
| 2026-04-26 15:39 | 51.47670 | -0.64899 | 2138 ft | 171 kts | 91° |
| 2026-04-26 15:39 | 51.47676 | -0.63666 | 1989 ft | 163 kts | 91° |
| 2026-04-26 15:40 | 51.47689 | -0.61399 | 1710 ft | 140 kts | 91° |
| 2026-04-26 15:40 | 51.47697 | -0.59899 | 1519 ft | 133 kts | 91° |
| 2026-04-26 15:40 | 51.47704 | -0.58415 | 1355 ft | 130 kts | 91° |
| 2026-04-26 15:40 | 51.47711 | -0.56986 | 1184 ft | 129 kts | 91° |
| 2026-04-26 15:41 | 51.47718 | -0.55542 | 1009 ft | 129 kts | 90° |
| 2026-04-26 15:41 | 51.47725 | -0.54079 | 823 ft | 130 kts | 91° |
| 2026-04-26 15:41 | 51.47731 | -0.52648 | 648 ft | 128 kts | 90° |
| 2026-04-26 15:41 | 51.47737 | -0.51249 | 474 ft | 126 kts | 89° |
| 2026-04-26 15:42 | 51.47743 | -0.49854 | 300 ft | 125 kts | 88° |
| 2026-04-26 15:42 | 51.47749 | -0.48452 | 138 ft | 126 kts | 88° |
| 2026-04-26 15:42 | 51.47752 | -0.47158 | 87 ft | 99 kts | 90° |
| 2026-04-26 15:42 | 51.47756 | -0.46350 | 90 ft | 39 kts | 89° |
| 2026-04-26 15:43 | 51.47672 | -0.46105 | 85 ft | 21 kts | 143° |
| 2026-04-26 15:43 | 51.47590 | -0.46064 | 86 ft | 5 kts | 221° |
| 2026-04-26 15:43 | 51.47592 | -0.46260 | 88 ft | 15 kts | 272° |
| 2026-04-26 15:44 | 51.47593 | -0.46448 | 89 ft | 18 kts | 269° |
| 2026-04-26 15:44 | 51.47587 | -0.46909 | 89 ft | 24 kts | 266° |
| 2026-04-26 15:44 | 51.47582 | -0.47194 | 88 ft | 28 kts | 270° |
| 2026-04-26 15:45 | 51.47582 | -0.47789 | 86 ft | 25 kts | 269° |
| 2026-04-26 15:45 | 51.47581 | -0.48066 | 91 ft | 24 kts | 270° |
| 2026-04-26 15:46 | 51.47533 | -0.48481 | 88 ft | 11 kts | 191° |
| 2026-04-26 15:46 | 51.47446 | -0.48477 | 85 ft | 11 kts | 178° |
| 2026-04-26 15:46 | 51.47400 | -0.48530 | 85 ft | 6 kts | 265° |
| 2026-04-26 15:46 | 51.47401 | -0.48574 | 85 ft | 2 kts | 270° |
| 2026-04-26 15:47 | 51.47401 | -0.48585 | 85 ft | 0 kts | 270° |